sensor_id;sensor_type;location;lat;lon;timestamp;P1;durP1;ratioP1;P2;durP2;ratioP2
24547;SDS011;12713;51.624;4.924;2023-07-16T00:00:59;8.13;;;2.70;;
24547;SDS011;12713;51.624;4.924;2023-07-16T00:03:28;10.00;;;2.55;;
24547;SDS011;12713;51.624;4.924;2023-07-16T00:05:59;6.70;;;2.60;;
24547;SDS011;12713;51.624;4.924;2023-07-16T00:08:28;8.80;;;2.53;;
24547;SDS011;12713;51.624;4.924;2023-07-16T00:10:57;9.18;;;3.03;;
24547;SDS011;12713;51.624;4.924;2023-07-16T00:13:23;8.38;;;2.67;;
24547;SDS011;12713;51.624;4.924;2023-07-16T00:15:52;13.18;;;3.03;;
24547;SDS011;12713;51.624;4.924;2023-07-16T00:18:18;9.48;;;2.78;;
24547;SDS011;12713;51.624;4.924;2023-07-16T00:20:47;8.50;;;2.15;;
24547;SDS011;12713;51.624;4.924;2023-07-16T00:23:13;7.88;;;2.60;;
24547;SDS011;12713;51.624;4.924;2023-07-16T00:25:39;7.18;;;2.65;;
24547;SDS011;12713;51.624;4.924;2023-07-16T00:28:05;6.20;;;2.30;;
24547;SDS011;12713;51.624;4.924;2023-07-16T00:30:31;7.60;;;2.28;;
24547;SDS011;12713;51.624;4.924;2023-07-16T00:32:57;7.03;;;2.53;;
24547;SDS011;12713;51.624;4.924;2023-07-16T00:35:27;9.75;;;2.63;;
24547;SDS011;12713;51.624;4.924;2023-07-16T00:37:55;11.38;;;2.80;;
24547;SDS011;12713;51.624;4.924;2023-07-16T00:40:21;8.45;;;3.00;;
24547;SDS011;12713;51.624;4.924;2023-07-16T00:42:49;7.38;;;2.55;;
24547;SDS011;12713;51.624;4.924;2023-07-16T00:45:15;7.03;;;2.95;;
24547;SDS011;12713;51.624;4.924;2023-07-16T00:47:41;11.07;;;2.30;;
24547;SDS011;12713;51.624;4.924;2023-07-16T00:50:10;13.70;;;2.85;;
24547;SDS011;12713;51.624;4.924;2023-07-16T00:52:36;7.93;;;2.70;;
24547;SDS011;12713;51.624;4.924;2023-07-16T00:55:03;7.90;;;2.88;;
24547;SDS011;12713;51.624;4.924;2023-07-16T00:57:32;6.40;;;2.75;;
24547;SDS011;12713;51.624;4.924;2023-07-16T00:59:58;9.90;;;2.55;;
24547;SDS011;12713;51.624;4.924;2023-07-16T01:02:24;14.18;;;3.20;;
24547;SDS011;12713;51.624;4.924;2023-07-16T01:04:51;5.70;;;2.85;;
24547;SDS011;12713;51.624;4.924;2023-07-16T01:07:17;6.15;;;2.72;;
24547;SDS011;12713;51.624;4.924;2023-07-16T01:09:44;5.53;;;2.40;;
24547;SDS011;12713;51.624;4.924;2023-07-16T01:12:10;8.88;;;2.65;;
24547;SDS011;12713;51.624;4.924;2023-07-16T01:14:36;9.88;;;2.70;;
24547;SDS011;12713;51.624;4.924;2023-07-16T01:17:06;10.65;;;3.25;;
24547;SDS011;12713;51.624;4.924;2023-07-16T01:19:33;10.15;;;3.03;;
24547;SDS011;12713;51.624;4.924;2023-07-16T01:24:58;10.30;;;3.42;;
24547;SDS011;12713;51.624;4.924;2023-07-16T01:27:43;9.35;;;2.95;;
24547;SDS011;12713;51.624;4.924;2023-07-16T01:30:16;13.07;;;3.30;;
24547;SDS011;12713;51.624;4.924;2023-07-16T01:32:43;9.23;;;2.90;;
24547;SDS011;12713;51.624;4.924;2023-07-16T01:35:10;14.68;;;3.65;;
24547;SDS011;12713;51.624;4.924;2023-07-16T01:37:36;10.85;;;3.13;;
24547;SDS011;12713;51.624;4.924;2023-07-16T01:40:02;9.35;;;3.05;;
24547;SDS011;12713;51.624;4.924;2023-07-16T01:42:28;8.10;;;2.95;;
24547;SDS011;12713;51.624;4.924;2023-07-16T01:44:58;10.48;;;3.38;;
24547;SDS011;12713;51.624;4.924;2023-07-16T01:47:35;12.90;;;3.20;;
24547;SDS011;12713;51.624;4.924;2023-07-16T01:50:05;9.07;;;3.03;;
24547;SDS011;12713;51.624;4.924;2023-07-16T01:52:31;7.65;;;3.35;;
24547;SDS011;12713;51.624;4.924;2023-07-16T01:54:57;9.55;;;3.65;;
24547;SDS011;12713;51.624;4.924;2023-07-16T01:57:23;11.35;;;3.40;;
24547;SDS011;12713;51.624;4.924;2023-07-16T01:59:49;7.90;;;3.22;;
24547;SDS011;12713;51.624;4.924;2023-07-16T02:02:15;7.97;;;3.70;;
24547;SDS011;12713;51.624;4.924;2023-07-16T02:04:41;9.75;;;4.13;;
24547;SDS011;12713;51.624;4.924;2023-07-16T02:07:07;13.65;;;3.75;;
24547;SDS011;12713;51.624;4.924;2023-07-16T02:09:33;12.65;;;3.92;;
24547;SDS011;12713;51.624;4.924;2023-07-16T02:12:00;11.90;;;4.05;;
24547;SDS011;12713;51.624;4.924;2023-07-16T02:14:26;11.35;;;3.88;;
24547;SDS011;12713;51.624;4.924;2023-07-16T02:16:52;7.40;;;3.25;;
24547;SDS011;12713;51.624;4.924;2023-07-16T02:19:18;10.07;;;3.50;;
24547;SDS011;12713;51.624;4.924;2023-07-16T02:21:44;7.22;;;3.17;;
24547;SDS011;12713;51.624;4.924;2023-07-16T02:24:10;11.32;;;3.50;;
24547;SDS011;12713;51.624;4.924;2023-07-16T02:26:36;9.13;;;3.00;;
24547;SDS011;12713;51.624;4.924;2023-07-16T02:29:02;8.00;;;3.15;;
24547;SDS011;12713;51.624;4.924;2023-07-16T02:31:31;7.50;;;2.90;;
24547;SDS011;12713;51.624;4.924;2023-07-16T02:33:57;13.43;;;3.40;;
24547;SDS011;12713;51.624;4.924;2023-07-16T02:36:23;7.95;;;3.45;;
24547;SDS011;12713;51.624;4.924;2023-07-16T02:38:49;9.52;;;3.47;;
24547;SDS011;12713;51.624;4.924;2023-07-16T02:41:15;7.43;;;3.17;;
24547;SDS011;12713;51.624;4.924;2023-07-16T02:43:45;8.23;;;3.03;;
24547;SDS011;12713;51.624;4.924;2023-07-16T02:46:14;10.32;;;3.08;;
24547;SDS011;12713;51.624;4.924;2023-07-16T02:48:40;8.57;;;3.22;;
24547;SDS011;12713;51.624;4.924;2023-07-16T02:51:06;11.55;;;3.05;;
24547;SDS011;12713;51.624;4.924;2023-07-16T02:53:32;9.35;;;3.17;;
24547;SDS011;12713;51.624;4.924;2023-07-16T02:56:00;9.68;;;3.20;;
24547;SDS011;12713;51.624;4.924;2023-07-16T02:58:26;10.30;;;3.95;;
24547;SDS011;12713;51.624;4.924;2023-07-16T03:00:52;8.30;;;3.58;;
24547;SDS011;12713;51.624;4.924;2023-07-16T03:03:19;10.13;;;3.78;;
24547;SDS011;12713;51.624;4.924;2023-07-16T03:05:45;9.52;;;3.85;;
24547;SDS011;12713;51.624;4.924;2023-07-16T03:08:11;9.15;;;4.00;;
24547;SDS011;12713;51.624;4.924;2023-07-16T03:10:40;11.30;;;3.85;;
24547;SDS011;12713;51.624;4.924;2023-07-16T03:13:09;11.35;;;3.90;;
24547;SDS011;12713;51.624;4.924;2023-07-16T03:15:35;8.23;;;3.97;;
24547;SDS011;12713;51.624;4.924;2023-07-16T03:18:03;14.43;;;4.72;;
24547;SDS011;12713;51.624;4.924;2023-07-16T03:20:34;8.80;;;3.95;;
24547;SDS011;12713;51.624;4.924;2023-07-16T03:23:04;11.95;;;4.40;;
24547;SDS011;12713;51.624;4.924;2023-07-16T03:25:30;11.43;;;4.68;;
24547;SDS011;12713;51.624;4.924;2023-07-16T03:27:56;12.32;;;3.83;;
24547;SDS011;12713;51.624;4.924;2023-07-16T03:30:24;13.23;;;3.90;;
24547;SDS011;12713;51.624;4.924;2023-07-16T03:32:50;10.45;;;3.65;;
24547;SDS011;12713;51.624;4.924;2023-07-16T03:35:16;11.85;;;4.30;;
24547;SDS011;12713;51.624;4.924;2023-07-16T03:37:43;11.48;;;4.22;;
24547;SDS011;12713;51.624;4.924;2023-07-16T03:40:14;8.95;;;3.78;;
24547;SDS011;12713;51.624;4.924;2023-07-16T03:42:43;12.15;;;3.65;;
24547;SDS011;12713;51.624;4.924;2023-07-16T03:45:10;8.88;;;4.07;;
24547;SDS011;12713;51.624;4.924;2023-07-16T03:47:39;7.00;;;3.75;;
24547;SDS011;12713;51.624;4.924;2023-07-16T03:50:05;9.13;;;4.45;;
24547;SDS011;12713;51.624;4.924;2023-07-16T03:52:32;11.70;;;4.30;;
24547;SDS011;12713;51.624;4.924;2023-07-16T03:54:58;9.27;;;3.70;;
24547;SDS011;12713;51.624;4.924;2023-07-16T03:57:30;10.95;;;4.30;;
24547;SDS011;12713;51.624;4.924;2023-07-16T04:00:02;8.48;;;3.90;;
24547;SDS011;12713;51.624;4.924;2023-07-16T04:02:31;11.13;;;4.72;;
24547;SDS011;12713;51.624;4.924;2023-07-16T04:04:57;13.00;;;4.97;;
24547;SDS011;12713;51.624;4.924;2023-07-16T04:07:29;8.57;;;4.47;;
24547;SDS011;12713;51.624;4.924;2023-07-16T04:09:58;10.30;;;4.78;;
24547;SDS011;12713;51.624;4.924;2023-07-16T04:12:26;14.20;;;5.85;;
24547;SDS011;12713;51.624;4.924;2023-07-16T04:14:56;9.05;;;4.55;;
24547;SDS011;12713;51.624;4.924;2023-07-16T04:17:26;9.57;;;4.85;;
24547;SDS011;12713;51.624;4.924;2023-07-16T04:19:55;9.55;;;4.47;;
24547;SDS011;12713;51.624;4.924;2023-07-16T04:22:24;9.00;;;4.40;;
24547;SDS011;12713;51.624;4.924;2023-07-16T04:25:02;11.88;;;4.65;;
24547;SDS011;12713;51.624;4.924;2023-07-16T04:27:29;12.95;;;5.25;;
24547;SDS011;12713;51.624;4.924;2023-07-16T04:29:55;10.70;;;4.45;;
24547;SDS011;12713;51.624;4.924;2023-07-16T04:32:21;12.68;;;5.55;;
24547;SDS011;12713;51.624;4.924;2023-07-16T04:34:47;13.07;;;5.57;;
24547;SDS011;12713;51.624;4.924;2023-07-16T04:37:13;12.15;;;5.60;;
24547;SDS011;12713;51.624;4.924;2023-07-16T04:39:48;14.02;;;5.63;;
24547;SDS011;12713;51.624;4.924;2023-07-16T04:42:14;12.82;;;5.10;;
24547;SDS011;12713;51.624;4.924;2023-07-16T04:44:41;18.17;;;6.07;;
24547;SDS011;12713;51.624;4.924;2023-07-16T04:47:07;9.57;;;5.30;;
24547;SDS011;12713;51.624;4.924;2023-07-16T04:49:34;11.25;;;5.18;;
24547;SDS011;12713;51.624;4.924;2023-07-16T04:52:01;13.68;;;5.13;;
24547;SDS011;12713;51.624;4.924;2023-07-16T04:54:27;14.43;;;5.22;;
24547;SDS011;12713;51.624;4.924;2023-07-16T04:56:53;15.65;;;6.10;;
24547;SDS011;12713;51.624;4.924;2023-07-16T04:59:19;17.80;;;6.03;;
24547;SDS011;12713;51.624;4.924;2023-07-16T05:01:45;12.10;;;5.82;;
24547;SDS011;12713;51.624;4.924;2023-07-16T05:04:14;15.85;;;5.75;;
24547;SDS011;12713;51.624;4.924;2023-07-16T05:06:43;10.90;;;6.32;;
24547;SDS011;12713;51.624;4.924;2023-07-16T05:09:11;10.35;;;5.38;;
24547;SDS011;12713;51.624;4.924;2023-07-16T05:11:37;15.90;;;5.90;;
24547;SDS011;12713;51.624;4.924;2023-07-16T05:14:04;10.70;;;6.07;;
24547;SDS011;12713;51.624;4.924;2023-07-16T05:16:30;16.30;;;6.75;;
24547;SDS011;12713;51.624;4.924;2023-07-16T05:18:56;13.20;;;5.75;;
24547;SDS011;12713;51.624;4.924;2023-07-16T05:21:22;12.68;;;6.05;;
24547;SDS011;12713;51.624;4.924;2023-07-16T05:23:51;14.18;;;6.60;;
24547;SDS011;12713;51.624;4.924;2023-07-16T05:26:17;15.02;;;6.18;;
24547;SDS011;12713;51.624;4.924;2023-07-16T05:28:43;12.63;;;6.63;;
24547;SDS011;12713;51.624;4.924;2023-07-16T05:31:15;13.35;;;6.45;;
24547;SDS011;12713;51.624;4.924;2023-07-16T05:33:41;12.20;;;6.50;;
24547;SDS011;12713;51.624;4.924;2023-07-16T05:36:07;13.80;;;6.68;;
24547;SDS011;12713;51.624;4.924;2023-07-16T05:38:36;12.80;;;6.63;;
24547;SDS011;12713;51.624;4.924;2023-07-16T05:41:05;13.32;;;6.32;;
24547;SDS011;12713;51.624;4.924;2023-07-16T05:43:37;15.07;;;6.95;;
24547;SDS011;12713;51.624;4.924;2023-07-16T05:46:03;13.63;;;7.32;;
24547;SDS011;12713;51.624;4.924;2023-07-16T05:48:30;14.77;;;6.38;;
24547;SDS011;12713;51.624;4.924;2023-07-16T05:50:56;12.98;;;5.88;;
24547;SDS011;12713;51.624;4.924;2023-07-16T05:53:22;15.05;;;6.97;;
24547;SDS011;12713;51.624;4.924;2023-07-16T05:55:51;13.45;;;6.07;;
24547;SDS011;12713;51.624;4.924;2023-07-16T05:58:17;14.82;;;6.55;;
24547;SDS011;12713;51.624;4.924;2023-07-16T06:00:49;13.45;;;6.43;;
24547;SDS011;12713;51.624;4.924;2023-07-16T06:03:16;15.65;;;6.70;;
24547;SDS011;12713;51.624;4.924;2023-07-16T06:05:43;17.92;;;7.90;;
24547;SDS011;12713;51.624;4.924;2023-07-16T06:13:58;12.80;;;6.70;;
24547;SDS011;12713;51.624;4.924;2023-07-16T06:16:25;17.23;;;8.25;;
24547;SDS011;12713;51.624;4.924;2023-07-16T06:18:57;17.50;;;7.28;;
24547;SDS011;12713;51.624;4.924;2023-07-16T06:21:23;11.52;;;6.88;;
24547;SDS011;12713;51.624;4.924;2023-07-16T06:23:49;18.27;;;6.70;;
24547;SDS011;12713;51.624;4.924;2023-07-16T06:26:15;18.65;;;8.05;;
24547;SDS011;12713;51.624;4.924;2023-07-16T06:28:41;16.55;;;7.35;;
24547;SDS011;12713;51.624;4.924;2023-07-16T06:31:07;11.32;;;7.35;;
24547;SDS011;12713;51.624;4.924;2023-07-16T06:33:33;13.20;;;6.85;;
24547;SDS011;12713;51.624;4.924;2023-07-16T06:36:00;14.80;;;6.75;;
24547;SDS011;12713;51.624;4.924;2023-07-16T06:38:26;12.73;;;6.80;;
24547;SDS011;12713;51.624;4.924;2023-07-16T06:41:01;17.65;;;7.45;;
24547;SDS011;12713;51.624;4.924;2023-07-16T06:43:28;15.35;;;7.20;;
24547;SDS011;12713;51.624;4.924;2023-07-16T06:45:54;15.32;;;6.68;;
24547;SDS011;12713;51.624;4.924;2023-07-16T06:48:23;13.00;;;6.70;;
24547;SDS011;12713;51.624;4.924;2023-07-16T06:50:51;12.20;;;6.50;;
24547;SDS011;12713;51.624;4.924;2023-07-16T06:53:17;13.93;;;6.72;;
24547;SDS011;12713;51.624;4.924;2023-07-16T06:55:47;13.38;;;7.22;;
24547;SDS011;12713;51.624;4.924;2023-07-16T06:58:14;14.23;;;7.05;;
24547;SDS011;12713;51.624;4.924;2023-07-16T07:01:03;18.70;;;6.97;;
24547;SDS011;12713;51.624;4.924;2023-07-16T07:03:28;22.42;;;7.70;;
24547;SDS011;12713;51.624;4.924;2023-07-16T07:06:06;16.23;;;7.20;;
24547;SDS011;12713;51.624;4.924;2023-07-16T07:08:35;16.77;;;6.80;;
24547;SDS011;12713;51.624;4.924;2023-07-16T07:11:07;16.05;;;7.50;;
24547;SDS011;12713;51.624;4.924;2023-07-16T07:13:42;16.20;;;7.50;;
24547;SDS011;12713;51.624;4.924;2023-07-16T07:16:10;15.75;;;7.43;;
24547;SDS011;12713;51.624;4.924;2023-07-16T07:18:37;18.58;;;7.22;;
24547;SDS011;12713;51.624;4.924;2023-07-16T07:21:05;13.20;;;7.13;;
24547;SDS011;12713;51.624;4.924;2023-07-16T07:23:31;21.95;;;7.85;;
24547;SDS011;12713;51.624;4.924;2023-07-16T07:25:57;12.95;;;7.38;;
24547;SDS011;12713;51.624;4.924;2023-07-16T07:28:24;15.40;;;7.50;;
24547;SDS011;12713;51.624;4.924;2023-07-16T07:31:06;14.48;;;7.10;;
24547;SDS011;12713;51.624;4.924;2023-07-16T07:33:41;11.80;;;6.72;;
24547;SDS011;12713;51.624;4.924;2023-07-16T07:36:14;18.20;;;7.15;;
24547;SDS011;12713;51.624;4.924;2023-07-16T07:38:43;12.48;;;6.55;;
24547;SDS011;12713;51.624;4.924;2023-07-16T07:41:12;17.57;;;7.50;;
24547;SDS011;12713;51.624;4.924;2023-07-16T07:43:47;16.98;;;6.82;;
24547;SDS011;12713;51.624;4.924;2023-07-16T07:46:16;13.57;;;6.90;;
24547;SDS011;12713;51.624;4.924;2023-07-16T07:48:52;13.50;;;7.63;;
24547;SDS011;12713;51.624;4.924;2023-07-16T07:51:20;15.88;;;7.38;;
24547;SDS011;12713;51.624;4.924;2023-07-16T07:53:46;16.13;;;6.55;;
24547;SDS011;12713;51.624;4.924;2023-07-16T07:56:12;11.88;;;6.45;;
24547;SDS011;12713;51.624;4.924;2023-07-16T07:58:40;14.70;;;6.80;;
24547;SDS011;12713;51.624;4.924;2023-07-16T08:01:10;13.02;;;6.80;;
24547;SDS011;12713;51.624;4.924;2023-07-16T08:03:39;18.27;;;7.57;;
24547;SDS011;12713;51.624;4.924;2023-07-16T08:06:05;13.40;;;6.63;;
24547;SDS011;12713;51.624;4.924;2023-07-16T08:08:40;14.82;;;7.13;;
24547;SDS011;12713;51.624;4.924;2023-07-16T08:11:12;14.63;;;6.68;;
24547;SDS011;12713;51.624;4.924;2023-07-16T08:13:41;17.33;;;6.63;;
24547;SDS011;12713;51.624;4.924;2023-07-16T08:16:07;14.82;;;6.10;;
24547;SDS011;12713;51.624;4.924;2023-07-16T08:18:34;16.92;;;6.68;;
24547;SDS011;12713;51.624;4.924;2023-07-16T08:21:02;13.63;;;6.65;;
24547;SDS011;12713;51.624;4.924;2023-07-16T08:23:28;15.55;;;6.50;;
24547;SDS011;12713;51.624;4.924;2023-07-16T08:25:54;11.02;;;6.10;;
24547;SDS011;12713;51.624;4.924;2023-07-16T08:28:30;14.18;;;6.55;;
24547;SDS011;12713;51.624;4.924;2023-07-16T08:31:02;15.82;;;7.45;;
24547;SDS011;12713;51.624;4.924;2023-07-16T08:33:39;15.88;;;6.70;;
24547;SDS011;12713;51.624;4.924;2023-07-16T08:36:09;10.45;;;7.05;;
24547;SDS011;12713;51.624;4.924;2023-07-16T08:38:35;14.30;;;7.13;;
24547;SDS011;12713;51.624;4.924;2023-07-16T08:41:12;15.70;;;6.50;;
24547;SDS011;12713;51.624;4.924;2023-07-16T08:43:44;16.58;;;6.35;;
24547;SDS011;12713;51.624;4.924;2023-07-16T08:46:11;14.52;;;6.90;;
24547;SDS011;12713;51.624;4.924;2023-07-16T08:48:41;14.32;;;7.35;;
24547;SDS011;12713;51.624;4.924;2023-07-16T08:51:07;14.68;;;6.03;;
24547;SDS011;12713;51.624;4.924;2023-07-16T08:53:42;12.27;;;6.28;;
24547;SDS011;12713;51.624;4.924;2023-07-16T08:56:11;16.65;;;7.22;;
24547;SDS011;12713;51.624;4.924;2023-07-16T09:01:34;17.48;;;6.78;;
24547;SDS011;12713;51.624;4.924;2023-07-16T09:04:00;14.35;;;7.28;;
24547;SDS011;12713;51.624;4.924;2023-07-16T09:06:26;15.73;;;7.30;;
24547;SDS011;12713;51.624;4.924;2023-07-16T09:08:56;12.43;;;6.80;;
24547;SDS011;12713;51.624;4.924;2023-07-16T09:11:22;13.10;;;6.75;;
24547;SDS011;12713;51.624;4.924;2023-07-16T09:13:54;14.38;;;7.32;;
24547;SDS011;12713;51.624;4.924;2023-07-16T09:16:20;14.85;;;7.82;;
24547;SDS011;12713;51.624;4.924;2023-07-16T09:18:46;16.65;;;6.80;;
24547;SDS011;12713;51.624;4.924;2023-07-16T09:21:21;14.43;;;6.78;;
24547;SDS011;12713;51.624;4.924;2023-07-16T09:23:52;13.25;;;6.75;;
24547;SDS011;12713;51.624;4.924;2023-07-16T09:26:24;13.55;;;7.30;;
24547;SDS011;12713;51.624;4.924;2023-07-16T09:28:50;16.15;;;6.70;;
24547;SDS011;12713;51.624;4.924;2023-07-16T09:31:29;14.55;;;6.50;;
24547;SDS011;12713;51.624;4.924;2023-07-16T09:33:56;13.48;;;7.00;;
24547;SDS011;12713;51.624;4.924;2023-07-16T09:36:27;14.10;;;6.88;;
24547;SDS011;12713;51.624;4.924;2023-07-16T09:38:53;21.08;;;7.80;;
24547;SDS011;12713;51.624;4.924;2023-07-16T09:41:29;13.90;;;5.75;;
24547;SDS011;12713;51.624;4.924;2023-07-16T09:43:55;15.50;;;5.95;;
24547;SDS011;12713;51.624;4.924;2023-07-16T09:46:22;14.65;;;6.35;;
24547;SDS011;12713;51.624;4.924;2023-07-16T09:48:48;14.60;;;5.78;;
24547;SDS011;12713;51.624;4.924;2023-07-16T09:51:16;10.00;;;5.78;;
24547;SDS011;12713;51.624;4.924;2023-07-16T09:53:43;12.43;;;5.78;;
24547;SDS011;12713;51.624;4.924;2023-07-16T09:56:10;12.32;;;6.38;;
24547;SDS011;12713;51.624;4.924;2023-07-16T09:58:37;16.83;;;6.18;;
24547;SDS011;12713;51.624;4.924;2023-07-16T10:01:09;10.05;;;5.78;;
24547;SDS011;12713;51.624;4.924;2023-07-16T10:06:13;11.77;;;6.30;;
24547;SDS011;12713;51.624;4.924;2023-07-16T10:08:39;15.10;;;6.05;;
24547;SDS011;12713;51.624;4.924;2023-07-16T10:11:14;9.52;;;5.55;;
24547;SDS011;12713;51.624;4.924;2023-07-16T10:13:48;12.43;;;6.20;;
24547;SDS011;12713;51.624;4.924;2023-07-16T10:16:22;12.77;;;5.70;;
24547;SDS011;12713;51.624;4.924;2023-07-16T10:18:52;13.00;;;6.50;;
24547;SDS011;12713;51.624;4.924;2023-07-16T10:21:22;16.38;;;6.80;;
24547;SDS011;12713;51.624;4.924;2023-07-16T10:23:56;11.75;;;5.90;;
24547;SDS011;12713;51.624;4.924;2023-07-16T10:26:26;13.88;;;6.25;;
24547;SDS011;12713;51.624;4.924;2023-07-16T10:28:55;15.95;;;6.93;;
24547;SDS011;12713;51.624;4.924;2023-07-16T10:31:27;11.68;;;5.90;;
24547;SDS011;12713;51.624;4.924;2023-07-16T10:34:04;12.85;;;6.13;;
24547;SDS011;12713;51.624;4.924;2023-07-16T10:36:49;14.57;;;5.68;;
24547;SDS011;12713;51.624;4.924;2023-07-16T10:39:15;13.55;;;6.18;;
24547;SDS011;12713;51.624;4.924;2023-07-16T10:41:47;13.80;;;5.95;;
24547;SDS011;12713;51.624;4.924;2023-07-16T10:44:14;11.93;;;6.05;;
24547;SDS011;12713;51.624;4.924;2023-07-16T10:46:43;15.93;;;6.53;;
24547;SDS011;12713;51.624;4.924;2023-07-16T10:49:09;16.58;;;6.78;;
24547;SDS011;12713;51.624;4.924;2023-07-16T10:51:35;12.68;;;6.32;;
24547;SDS011;12713;51.624;4.924;2023-07-16T10:54:01;14.13;;;6.40;;
24547;SDS011;12713;51.624;4.924;2023-07-16T10:56:30;13.32;;;6.43;;
24547;SDS011;12713;51.624;4.924;2023-07-16T10:58:59;15.63;;;6.25;;
24547;SDS011;12713;51.624;4.924;2023-07-16T11:01:25;12.52;;;5.93;;
24547;SDS011;12713;51.624;4.924;2023-07-16T11:04:00;13.93;;;6.25;;
24547;SDS011;12713;51.624;4.924;2023-07-16T11:06:32;12.50;;;6.55;;
24547;SDS011;12713;51.624;4.924;2023-07-16T11:09:09;14.93;;;6.25;;
24547;SDS011;12713;51.624;4.924;2023-07-16T11:11:37;13.90;;;6.05;;
24547;SDS011;12713;51.624;4.924;2023-07-16T11:14:25;16.08;;;6.65;;
24547;SDS011;12713;51.624;4.924;2023-07-16T11:16:54;18.40;;;6.75;;
24547;SDS011;12713;51.624;4.924;2023-07-16T11:19:35;10.85;;;5.85;;
24547;SDS011;12713;51.624;4.924;2023-07-16T11:22:04;16.05;;;6.88;;
24547;SDS011;12713;51.624;4.924;2023-07-16T11:25:31;12.55;;;7.10;;
24547;SDS011;12713;51.624;4.924;2023-07-16T11:27:32;11.43;;;6.40;;
24547;SDS011;12713;51.624;4.924;2023-07-16T11:30:00;10.65;;;5.90;;
24547;SDS011;12713;51.624;4.924;2023-07-16T11:35:15;11.25;;;5.95;;
24547;SDS011;12713;51.624;4.924;2023-07-16T11:37:42;10.52;;;5.68;;
24547;SDS011;12713;51.624;4.924;2023-07-16T11:40:11;15.30;;;6.18;;
24547;SDS011;12713;51.624;4.924;2023-07-16T11:42:49;13.48;;;5.65;;
24547;SDS011;12713;51.624;4.924;2023-07-16T11:45:21;11.02;;;5.28;;
24547;SDS011;12713;51.624;4.924;2023-07-16T11:48:00;12.73;;;6.35;;
24547;SDS011;12713;51.624;4.924;2023-07-16T11:50:27;12.88;;;5.60;;
24547;SDS011;12713;51.624;4.924;2023-07-16T11:52:54;9.82;;;5.65;;
24547;SDS011;12713;51.624;4.924;2023-07-16T11:55:24;9.38;;;5.35;;
24547;SDS011;12713;51.624;4.924;2023-07-16T11:57:56;13.70;;;5.22;;
24547;SDS011;12713;51.624;4.924;2023-07-16T12:00:26;11.30;;;5.95;;
24547;SDS011;12713;51.624;4.924;2023-07-16T12:02:52;11.68;;;5.82;;
24547;SDS011;12713;51.624;4.924;2023-07-16T12:05:51;11.23;;;5.73;;
24547;SDS011;12713;51.624;4.924;2023-07-16T12:08:17;12.50;;;5.85;;
24547;SDS011;12713;51.624;4.924;2023-07-16T12:10:46;8.68;;;5.82;;
24547;SDS011;12713;51.624;4.924;2023-07-16T12:33:55;11.00;;;4.22;;
24547;SDS011;12713;51.624;4.924;2023-07-16T12:49:10;6.80;;;3.30;;
24547;SDS011;12713;51.624;4.924;2023-07-16T13:17:13;5.93;;;2.10;;
24547;SDS011;12713;51.624;4.924;2023-07-16T13:26:08;7.15;;;2.50;;
24547;SDS011;12713;51.624;4.924;2023-07-16T13:28:45;6.78;;;2.20;;
24547;SDS011;12713;51.624;4.924;2023-07-16T13:43:50;5.88;;;2.22;;
24547;SDS011;12713;51.624;4.924;2023-07-16T13:56:18;5.05;;;2.20;;
24547;SDS011;12713;51.624;4.924;2023-07-16T14:02:22;5.18;;;2.33;;
24547;SDS011;12713;51.624;4.924;2023-07-16T14:04:53;4.50;;;2.20;;
24547;SDS011;12713;51.624;4.924;2023-07-16T14:13:35;8.77;;;2.80;;
24547;SDS011;12713;51.624;4.924;2023-07-16T14:16:02;13.05;;;3.15;;
24547;SDS011;12713;51.624;4.924;2023-07-16T14:18:28;5.95;;;2.85;;
24547;SDS011;12713;51.624;4.924;2023-07-16T14:20:57;7.75;;;3.00;;
24547;SDS011;12713;51.624;4.924;2023-07-16T14:23:23;7.28;;;2.90;;
24547;SDS011;12713;51.624;4.924;2023-07-16T14:25:52;5.20;;;2.58;;
24547;SDS011;12713;51.624;4.924;2023-07-16T14:28:18;9.15;;;3.28;;
24547;SDS011;12713;51.624;4.924;2023-07-16T14:30:44;11.20;;;3.65;;
24547;SDS011;12713;51.624;4.924;2023-07-16T14:33:26;6.47;;;3.05;;
24547;SDS011;12713;51.624;4.924;2023-07-16T14:35:52;6.53;;;3.22;;
24547;SDS011;12713;51.624;4.924;2023-07-16T14:38:18;5.65;;;3.05;;
24547;SDS011;12713;51.624;4.924;2023-07-16T14:43:34;9.25;;;3.38;;
24547;SDS011;12713;51.624;4.924;2023-07-16T14:46:01;5.88;;;3.15;;
24547;SDS011;12713;51.624;4.924;2023-07-16T14:48:28;6.13;;;2.92;;
24547;SDS011;12713;51.624;4.924;2023-07-16T14:50:54;7.93;;;3.20;;
24547;SDS011;12713;51.624;4.924;2023-07-16T14:53:20;6.15;;;2.70;;
24547;SDS011;12713;51.624;4.924;2023-07-16T14:55:55;4.60;;;2.70;;
24547;SDS011;12713;51.624;4.924;2023-07-16T14:58:21;5.97;;;3.10;;
24547;SDS011;12713;51.624;4.924;2023-07-16T15:00:50;6.35;;;2.70;;
24547;SDS011;12713;51.624;4.924;2023-07-16T15:03:19;6.70;;;2.92;;
24547;SDS011;12713;51.624;4.924;2023-07-16T15:05:45;5.22;;;2.95;;
24547;SDS011;12713;51.624;4.924;2023-07-16T15:08:14;6.05;;;2.80;;
24547;SDS011;12713;51.624;4.924;2023-07-16T15:10:40;5.85;;;3.30;;
24547;SDS011;12713;51.624;4.924;2023-07-16T15:13:06;8.95;;;3.22;;
24547;SDS011;12713;51.624;4.924;2023-07-16T15:15:37;7.25;;;3.67;;
24547;SDS011;12713;51.624;4.924;2023-07-16T15:18:03;4.75;;;3.13;;
24547;SDS011;12713;51.624;4.924;2023-07-16T15:20:37;5.45;;;3.28;;
24547;SDS011;12713;51.624;4.924;2023-07-16T15:23:12;6.60;;;3.28;;
24547;SDS011;12713;51.624;4.924;2023-07-16T15:25:41;5.05;;;3.30;;
24547;SDS011;12713;51.624;4.924;2023-07-16T15:28:10;5.03;;;3.00;;
24547;SDS011;12713;51.624;4.924;2023-07-16T15:30:36;6.50;;;3.05;;
24547;SDS011;12713;51.624;4.924;2023-07-16T15:33:05;7.82;;;3.10;;
24547;SDS011;12713;51.624;4.924;2023-07-16T15:35:34;8.18;;;3.63;;
24547;SDS011;12713;51.624;4.924;2023-07-16T15:38:01;5.55;;;2.70;;
24547;SDS011;12713;51.624;4.924;2023-07-16T15:40:29;6.40;;;2.78;;
24547;SDS011;12713;51.624;4.924;2023-07-16T15:42:57;5.95;;;3.17;;
24547;SDS011;12713;51.624;4.924;2023-07-16T15:45:23;7.20;;;2.85;;
24547;SDS011;12713;51.624;4.924;2023-07-16T15:47:49;4.45;;;2.65;;
24547;SDS011;12713;51.624;4.924;2023-07-16T15:50:24;4.78;;;2.80;;
24547;SDS011;12713;51.624;4.924;2023-07-16T15:52:59;6.25;;;3.35;;
24547;SDS011;12713;51.624;4.924;2023-07-16T15:55:31;8.75;;;3.42;;
24547;SDS011;12713;51.624;4.924;2023-07-16T15:57:57;8.57;;;3.35;;
24547;SDS011;12713;51.624;4.924;2023-07-16T16:00:31;5.10;;;2.55;;
24547;SDS011;12713;51.624;4.924;2023-07-16T16:02:57;5.00;;;2.33;;
24547;SDS011;12713;51.624;4.924;2023-07-16T16:05:32;5.32;;;2.63;;
24547;SDS011;12713;51.624;4.924;2023-07-16T16:08:17;6.00;;;2.88;;
24547;SDS011;12713;51.624;4.924;2023-07-16T16:10:47;4.97;;;2.95;;
24547;SDS011;12713;51.624;4.924;2023-07-16T16:13:23;4.30;;;2.17;;
24547;SDS011;12713;51.624;4.924;2023-07-16T16:15:52;5.03;;;2.08;;
24547;SDS011;12713;51.624;4.924;2023-07-16T16:18:24;4.90;;;2.53;;
24547;SDS011;12713;51.624;4.924;2023-07-16T16:23:35;3.97;;;2.30;;
24547;SDS011;12713;51.624;4.924;2023-07-16T16:26:01;4.28;;;2.55;;
24547;SDS011;12713;51.624;4.924;2023-07-16T16:28:30;6.97;;;2.10;;
24547;SDS011;12713;51.624;4.924;2023-07-16T16:30:56;5.72;;;2.28;;
24547;SDS011;12713;51.624;4.924;2023-07-16T16:33:34;7.95;;;2.70;;
24547;SDS011;12713;51.624;4.924;2023-07-16T16:36:12;4.25;;;2.10;;
24547;SDS011;12713;51.624;4.924;2023-07-16T16:38:45;4.13;;;2.10;;
24547;SDS011;12713;51.624;4.924;2023-07-16T16:41:14;9.68;;;2.10;;
24547;SDS011;12713;51.624;4.924;2023-07-16T16:43:43;3.50;;;1.98;;
24547;SDS011;12713;51.624;4.924;2023-07-16T16:46:12;4.55;;;2.40;;
24547;SDS011;12713;51.624;4.924;2023-07-16T16:48:38;4.95;;;2.00;;
24547;SDS011;12713;51.624;4.924;2023-07-16T16:51:07;6.45;;;2.53;;